Time;durP1;ratioP1;P1;durP2;ratioP2;P2;SDS_P1;SDS_P2;PMS_P1;PMS_P2;Temp;Humidity;BMP_temperature;BMP_pressure;BME280_temperature;BME280_humidity;BME280_pressure;Samples;Min_cycle;Max_cycle;Signal;HPM_P1;HPM_P2
2024/01/05 00:02:04;;;;;;;0.80;0.80;;;;;;;9.02;62.75;96493.94;5007547;28;20057;-68
2024/01/05 00:04:31;;;;;;;0.70;0.70;;;;;;;8.61;62.77;96423.16;5007788;28;20125;-66
2024/01/05 00:06:57;;;;;;;0.70;0.70;;;;;;;8.88;63.17;96471.66;5007658;28;20093;-67
2024/01/05 00:09:24;;;;;;;0.70;0.70;;;;;;;8.89;64.80;96492.56;5006275;28;20100;-67
2024/01/05 00:11:51;;;;;;;0.80;0.80;;;;;;;8.23;63.99;96390.25;5006054;28;20157;-66
2024/01/05 00:14:18;;;;;;;0.60;0.60;;;;;;;8.87;63.24;96500.44;5007029;28;20057;-67
2024/01/05 00:16:46;;;;;;;0.70;0.70;;;;;;;8.78;63.29;96472.28;5007238;28;20058;-67
2024/01/05 00:19:13;;;;;;;0.70;0.70;;;;;;;8.87;64.14;96514.22;5005910;28;20505;-66
2024/01/05 00:21:40;;;;;;;0.70;0.70;;;;;;;8.33;65.94;96500.00;5006893;28;20834;-66
2024/01/05 00:24:07;;;;;;;0.60;0.60;;;;;;;8.32;67.36;96504.69;5007418;28;20064;-67
2024/01/05 00:26:33;;;;;;;0.70;0.70;;;;;;;7.28;67.72;96356.34;5006620;28;20515;-66
2024/01/05 00:29:02;;;;;;;0.68;0.68;;;;;;;7.87;67.75;96459.75;5007178;28;20056;-68
2024/01/05 00:31:29;;;;;;;0.70;0.70;;;;;;;7.98;69.86;96511.16;5005625;28;20069;-66
2024/01/05 00:33:56;;;;;;;0.60;0.60;;;;;;;7.77;71.29;96509.97;5006621;28;20505;-67
2024/01/05 00:36:23;;;;;;;0.70;0.70;;;;;;;7.64;72.35;96518.41;5007152;28;20057;-68
2024/01/05 00:38:49;;;;;;;0.70;0.70;;;;;;;7.44;73.17;96492.03;5007091;28;20046;-66
2024/01/05 00:41:16;;;;;;;0.68;0.68;;;;;;;7.35;73.18;96488.69;5007311;28;20049;-65
2024/01/05 00:43:43;;;;;;;0.68;0.68;;;;;;;7.57;72.94;96522.97;5005452;28;20505;-66
2024/01/05 00:46:10;;;;;;;0.60;0.60;;;;;;;7.15;75.59;96538.59;4997487;28;20520;-66
2024/01/05 00:48:37;;;;;;;0.60;0.60;;;;;;;7.03;75.48;96509.25;4987153;28;20527;-65
2024/01/05 00:51:04;;;;;;;0.60;0.60;;;;;;;6.79;76.24;96484.72;4987383;28;20061;-65
2024/01/05 00:53:31;;;;;;;0.60;0.60;;;;;;;7.08;76.10;96532.97;4986968;28;20065;-66
2024/01/05 00:55:58;;;;;;;0.60;0.60;;;;;;;7.13;75.93;96536.22;4986533;28;20062;-66
2024/01/05 00:58:24;;;;;;;0.68;0.68;;;;;;;6.08;76.34;96420.97;4985319;28;20489;-66
2024/01/05 01:00:51;;;;;;;0.60;0.60;;;;;;;6.77;78.32;96555.03;4987130;28;20050;-65
2024/01/05 01:03:18;;;;;;;0.60;0.60;;;;;;;6.68;79.13;96529.66;4985089;28;20528;-66
2024/01/05 01:05:45;;;;;;;0.65;0.65;;;;;;;6.14;81.16;96510.28;5001025;28;20483;-66
2024/01/05 01:08:15;;;;;;;0.50;0.50;;;;;;;6.60;79.99;96531.47;4986721;28;20436;-66
2024/01/05 01:10:42;;;;;;;0.50;0.50;;;;;;;6.43;80.57;96531.84;4986939;28;20057;-65
2024/01/05 01:13:08;;;;;;;0.50;0.50;;;;;;;6.41;80.85;96530.59;4986878;28;20050;-66
2024/01/05 01:15:35;;;;;;;0.60;0.60;;;;;;;6.30;79.74;96485.53;4986669;28;20505;-65
2024/01/05 01:18:02;;;;;;;0.50;0.50;;;;;;;5.86;83.12;96515.06;5001283;28;20050;-66
2024/01/05 01:20:29;;;;;;;0.50;0.50;;;;;;;5.23;83.19;96447.38;4986791;28;20054;-65
2024/01/05 01:22:56;;;;;;;0.50;0.50;;;;;;;5.91;83.78;96542.28;4986601;28;20080;-65
2024/01/05 01:25:23;;;;;;;0.60;0.60;;;;;;;5.92;82.66;96541.13;4986955;28;20062;-66
2024/01/05 01:27:50;;;;;;;0.50;0.50;;;;;;;5.87;84.68;96544.94;4986244;28;20042;-66
2024/01/05 01:30:16;;;;;;;0.50;0.50;;;;;;;5.03;84.21;96401.72;4986416;28;20525;-65
2024/01/05 01:32:43;;;;;;;0.50;0.50;;;;;;;5.93;84.35;96526.22;4986334;28;20054;-66
2024/01/05 01:35:10;;;;;;;0.50;0.50;;;;;;;5.37;83.23;96436.78;4986508;28;20058;-66
2024/01/05 01:37:37;;;;;;;0.50;0.50;;;;;;;5.47;85.45;96537.91;5000746;28;20054;-65
2024/01/05 01:40:04;;;;;;;0.50;0.50;;;;;;;5.28;85.50;96485.56;4984668;28;20527;-65
2024/01/05 01:42:32;;;;;;;0.50;0.50;;;;;;;5.24;84.44;96490.16;4986118;28;20081;-66
2024/01/05 01:45:00;;;;;;;0.50;0.50;;;;;;;5.68;84.95;96546.72;4986132;28;20129;-66
2024/01/05 01:47:28;;;;;;;0.50;0.50;;;;;;;5.33;84.65;96521.00;5000509;28;20049;-65
2024/01/05 01:49:56;;;;;;;0.50;0.50;;;;;;;5.12;84.90;96556.09;5005730;28;20057;-67
2024/01/05 01:52:24;;;;;;;0.50;0.50;;;;;;;4.83;85.34;96499.56;5003923;28;20064;-66
2024/01/05 01:54:51;;;;;;;0.60;0.60;;;;;;;5.42;84.78;96577.38;5005303;28;20050;-66
2024/01/05 01:57:18;;;;;;;0.40;0.40;;;;;;;5.32;84.90;96549.63;5005188;28;20153;-66
2024/01/05 01:59:46;;;;;;;0.50;0.50;;;;;;;5.22;86.02;96550.09;5004654;28;20229;-68
2024/01/05 02:02:13;;;;;;;0.50;0.50;;;;;;;5.25;87.03;96560.41;5005264;28;20133;-66
2024/01/05 02:04:41;;;;;;;0.45;0.45;;;;;;;5.24;86.60;96569.78;5005553;28;20161;-66
2024/01/05 02:07:08;;;;;;;0.50;0.50;;;;;;;4.66;88.92;96571.91;5003064;28;20046;-66
2024/01/05 02:09:35;;;;;;;0.40;0.40;;;;;;;4.10;91.40;96574.75;5005751;28;20563;-67
2024/01/05 02:12:02;;;;;;;0.40;0.40;;;;;;;4.01;91.68;96517.31;5020338;28;20132;-65
2024/01/05 02:14:29;;;;;;;0.45;0.45;;;;;;;4.66;90.04;96587.59;5005185;28;20428;-66
2024/01/05 02:16:56;;;;;;;0.45;0.45;;;;;;;3.60;89.97;96413.44;5004795;28;20041;-67
2024/01/05 02:19:23;;;;;;;0.40;0.40;;;;;;;4.11;90.72;96511.38;5005302;28;20507;-65
2024/01/05 02:21:54;;;;;;;0.40;0.40;;;;;;;3.83;91.53;96540.56;5005200;28;20557;-66
2024/01/05 02:24:21;;;;;;;0.40;0.40;;;;;;;3.80;93.01;96538.50;5004975;28;20056;-66
2024/01/05 02:26:48;;;;;;;0.40;0.40;;;;;;;3.94;92.97;96544.47;5005601;28;20990;-66
2024/01/05 02:29:21;;;;;;;0.50;0.50;;;;;;;4.51;93.03;96605.53;5004882;28;20100;-66
2024/01/05 02:31:49;;;;;;;0.40;0.40;;;;;;;4.59;92.28;96623.81;5004733;28;20082;-67
2024/01/05 02:34:16;;;;;;;0.40;0.40;;;;;;;4.65;91.74;96602.44;5019279;28;20049;-67
2024/01/05 02:36:43;;;;;;;0.50;0.50;;;;;;;4.37;91.70;96552.97;5004079;28;20057;-66
2024/01/05 02:39:11;;;;;;;0.40;0.40;;;;;;;3.16;92.34;96495.53;5004879;28;20333;-66
2024/01/05 02:41:38;;;;;;;0.40;0.40;;;;;;;4.21;92.49;96615.09;5004351;28;20085;-67
2024/01/05 02:44:05;;;;;;;0.40;0.40;;;;;;;4.29;91.84;96611.44;5019892;28;20586;-66
2024/01/05 02:46:33;;;;;;;0.40;0.40;;;;;;;4.45;91.50;96623.34;4997915;28;20476;-66
2024/01/05 02:49:00;;;;;;;0.40;0.40;;;;;;;4.49;90.68;96621.50;4985224;28;20054;-67
2024/01/05 02:51:27;;;;;;;0.50;0.50;;;;;;;4.26;90.57;96568.28;4985318;28;20061;-67
2024/01/05 02:53:54;;;;;;;0.40;0.40;;;;;;;4.65;90.04;96635.34;5000191;28;20046;-65
2024/01/05 02:56:22;;;;;;;0.50;0.50;;;;;;;4.46;90.29;96605.75;4985304;28;20081;-65
2024/01/05 02:58:53;;;;;;;0.40;0.40;;;;;;;4.54;90.79;96613.06;4985015;28;20062;-65
2024/01/05 03:01:20;;;;;;;0.40;0.40;;;;;;;4.65;91.30;96638.91;4999244;28;20128;-66
2024/01/05 03:03:48;;;;;;;0.40;0.40;;;;;;;4.63;91.45;96630.22;4984586;28;20660;-65
2024/01/05 03:06:19;;;;;;;0.50;0.50;;;;;;;4.27;91.74;96574.53;4985004;28;20062;-65
2024/01/05 03:08:46;;;;;;;0.40;0.40;;;;;;;4.47;91.51;96612.81;4985026;28;20046;-66
2024/01/05 03:11:13;;;;;;;0.50;0.50;;;;;;;3.18;90.14;96389.31;4984720;28;20141;-65
2024/01/05 03:13:40;;;;;;;0.40;0.40;;;;;;;4.12;90.43;96559.59;4999317;28;20054;-64
2024/01/05 03:16:07;;;;;;;0.40;0.40;;;;;;;4.37;91.18;96613.28;4984959;28;20054;-65
2024/01/05 03:18:33;;;;;;;0.40;0.40;;;;;;;3.28;91.78;96477.22;4998846;28;20058;-65
2024/01/05 03:21:01;;;;;;;0.50;0.50;;;;;;;4.45;91.47;96626.09;4983158;28;20054;-65
2024/01/05 03:23:27;;;;;;;0.50;0.50;;;;;;;4.27;91.24;96585.50;4984605;28;20057;-66
2024/01/05 03:25:56;;;;;;;0.40;0.40;;;;;;;4.42;91.47;96632.28;4984545;28;20508;-65
2024/01/05 03:28:24;;;;;;;0.40;0.40;;;;;;;4.44;91.59;96640.16;4984625;28;20052;-66
2024/01/05 03:30:51;;;;;;;0.45;0.45;;;;;;;4.42;91.60;96637.75;4984788;28;20068;-66
2024/01/05 03:33:22;;;;;;;0.40;0.40;;;;;;;4.45;91.17;96639.81;4984387;28;20492;-65
2024/01/05 03:35:49;;;;;;;0.40;0.40;;;;;;;3.27;93.54;96614.41;4982894;28;20555;-65
2024/01/05 03:38:16;;;;;;;0.40;0.40;;;;;;;3.22;93.60;96559.88;4984312;28;20054;-65
2024/01/05 03:40:43;;;;;;;0.40;0.40;;;;;;;3.37;91.67;96590.16;4984532;28;20141;-66
2024/01/05 03:43:09;;;;;;;0.50;0.50;;;;;;;2.78;91.31;96480.09;4999228;28;20665;-66
2024/01/05 03:45:36;;;;;;;0.40;0.40;;;;;;;2.17;92.74;96403.56;4984318;28;20117;-65
2024/01/05 03:48:04;;;;;;;0.40;0.40;;;;;;;3.96;92.28;96665.50;5002963;28;20085;-66
2024/01/05 03:50:31;;;;;;;0.40;0.40;;;;;;;3.52;92.36;96611.44;5003781;28;20429;-66
2024/01/05 03:52:57;;;;;;;0.50;0.50;;;;;;;3.91;93.74;96682.13;5004138;28;20075;-66
2024/01/05 03:55:24;;;;;;;0.40;0.40;;;;;;;3.60;93.97;96642.63;5003627;28;20054;-65
2024/01/05 03:57:51;;;;;;;0.40;0.40;;;;;;;3.45;94.69;96651.44;5002404;28;20054;-65
2024/01/05 04:00:18;;;;;;;0.50;0.50;;;;;;;3.85;95.14;96688.97;5001321;28;20064;-66
2024/01/05 04:02:45;;;;;;;0.40;0.40;;;;;;;3.51;94.13;96637.22;4984067;28;20256;-66
2024/01/05 04:05:12;;;;;;;0.40;0.40;;;;;;;3.38;94.63;96597.25;4984106;28;20050;-66
2024/01/05 04:07:39;;;;;;;0.40;0.40;;;;;;;3.13;97.17;96644.75;4983882;28;20064;-66
2024/01/05 04:10:06;;;;;;;0.40;0.40;;;;;;;3.50;96.97;96679.41;4983928;28;20057;-67
2024/01/05 04:12:33;;;;;;;0.40;0.40;;;;;;;2.78;96.79;96572.28;4984139;28;20406;-66
2024/01/05 04:15:00;;;;;;;0.40;0.40;;;;;;;3.45;97.21;96685.09;4982927;28;20055;-68
2024/01/05 04:17:27;;;;;;;0.40;0.40;;;;;;;3.50;95.87;96686.81;4984121;28;20049;-65
2024/01/05 04:19:54;;;;;;;0.40;0.40;;;;;;;3.33;96.87;96679.56;4982631;28;20418;-65
2024/01/05 04:22:20;;;;;;;0.32;0.32;;;;;;;3.14;96.52;96676.47;4984070;28;20054;-66
2024/01/05 04:24:47;;;;;;;0.40;0.40;;;;;;;3.22;96.72;96713.91;4984181;28;20101;-65
2024/01/05 04:27:14;;;;;;;0.35;0.35;;;;;;;3.33;96.52;96709.66;4998654;28;20050;-66
2024/01/05 04:29:41;;;;;;;0.38;0.38;;;;;;;3.41;97.47;96719.75;4983949;28;20145;-65
2024/01/05 04:32:07;;;;;;;0.30;0.30;;;;;;;3.31;97.74;96690.03;4986738;28;20061;-66
2024/01/05 04:34:34;;;;;;;0.40;0.40;;;;;;;2.86;98.08;96642.53;5002233;28;20053;-66
2024/01/05 04:37:01;;;;;;;0.40;0.40;;;;;;;3.15;99.00;96691.72;4985900;28;20081;-66
2024/01/05 04:39:28;;;;;;;0.40;0.40;;;;;;;3.06;98.14;96721.09;4987114;28;20600;-66
2024/01/05 04:41:55;;;;;;;0.40;0.40;;;;;;;3.13;98.08;96731.50;4985407;28;20066;-66
2024/01/05 04:44:21;;;;;;;0.40;0.40;;;;;;;3.13;98.19;96737.78;4986943;28;20046;-66
2024/01/05 04:46:48;;;;;;;0.40;0.40;;;;;;;3.20;97.76;96738.06;4992855;28;20316;-67
2024/01/05 04:49:15;;;;;;;0.30;0.30;;;;;;;2.89;99.56;96732.13;5005336;28;20062;-66
2024/01/05 04:51:42;;;;;;;0.40;0.40;;;;;;;2.79;99.74;96710.59;5006558;28;20488;-66
2024/01/05 04:54:10;;;;;;;0.30;0.30;;;;;;;2.94;99.98;96762.03;5006922;28;20432;-66
2024/01/05 04:56:37;;;;;;;0.38;0.38;;;;;;;3.06;100.00;96781.28;5006610;28;20064;-66
2024/01/05 04:59:04;;;;;;;0.40;0.40;;;;;;;2.83;98.49;96727.94;5006264;28;20503;-67
2024/01/05 05:01:31;;;;;;;0.40;0.40;;;;;;;3.03;99.30;96790.13;5006392;28;20050;-67
2024/01/05 05:03:57;;;;;;;0.40;0.40;;;;;;;2.70;99.67;96743.44;5006375;28;20492;-67
2024/01/05 05:06:24;;;;;;;0.40;0.40;;;;;;;3.04;99.26;96758.91;5006617;28;20054;-66
2024/01/05 05:08:51;;;;;;;0.40;0.40;;;;;;;2.89;99.36;96732.13;5006500;28;20421;-66
2024/01/05 05:11:18;;;;;;;0.40;0.40;;;;;;;3.06;98.33;96759.38;5021298;28;20505;-66
2024/01/05 05:13:45;;;;;;;0.40;0.40;;;;;;;2.52;98.96;96689.16;5006267;28;20053;-66
2024/01/05 05:16:13;;;;;;;0.32;0.32;;;;;;;3.28;99.93;96819.31;5004461;28;20422;-65
2024/01/05 05:18:39;;;;;;;0.40;0.40;;;;;;;3.17;99.14;96817.28;5006144;28;20513;-67
2024/01/05 05:21:08;;;;;;;0.40;0.40;;;;;;;2.68;99.04;96731.22;5021151;28;20057;-66
2024/01/05 05:23:37;;;;;;;0.40;0.40;;;;;;;3.17;97.89;96829.03;5006082;28;20085;-65
2024/01/05 05:26:04;;;;;;;0.30;0.30;;;;;;;2.74;98.13;96740.84;5021397;28;20049;-66
2024/01/05 05:28:31;;;;;;;0.40;0.40;;;;;;;3.14;98.46;96821.47;5004595;28;20061;-65
2024/01/05 05:30:58;;;;;;;0.40;0.40;;;;;;;3.18;98.36;96822.41;5006093;28;20116;-66
2024/01/05 05:33:26;;;;;;;0.40;0.40;;;;;;;2.29;98.26;96696.00;5005708;28;20046;-68
2024/01/05 05:35:54;;;;;;;0.40;0.40;;;;;;;2.45;98.64;96738.06;5003254;28;20049;-66
2024/01/05 05:38:20;;;;;;;0.32;0.32;;;;;;;3.21;98.54;96843.66;5005222;28;20061;-66
2024/01/05 05:40:47;;;;;;;0.40;0.40;;;;;;;2.80;99.04;96832.50;5004195;28;20046;-68
2024/01/05 05:43:14;;;;;;;0.30;0.30;;;;;;;2.11;100.00;96841.91;5003661;28;20505;-66
2024/01/05 05:45:41;;;;;;;0.30;0.30;;;;;;;2.46;100.00;96854.47;5005746;28;20061;-67
2024/01/05 05:48:08;;;;;;;0.30;0.30;;;;;;;2.26;100.00;96860.59;4987919;28;20104;-66
2024/01/05 05:50:35;;;;;;;0.40;0.40;;;;;;;1.98;100.00;96793.72;4985549;28;20560;-66
2024/01/05 05:53:02;;;;;;;0.35;0.35;;;;;;;2.54;100.00;96870.06;4985124;28;20050;-66
2024/01/05 05:55:28;;;;;;;0.40;0.40;;;;;;;2.64;100.00;96856.06;4985805;28;20056;-65
2024/01/05 05:57:57;;;;;;;0.35;0.35;;;;;;;2.69;100.00;96853.13;4985830;28;20500;-65
2024/01/05 06:00:25;;;;;;;0.30;0.30;;;;;;;2.26;100.00;96786.81;4985150;28;20137;-65
2024/01/05 06:02:51;;;;;;;0.32;0.32;;;;;;;-0.93;100.00;96257.84;4983495;28;20048;-70
2024/01/05 06:05:18;;;;;;;0.30;0.30;;;;;;;2.28;100.00;96768.13;4998863;28;20619;-72
2024/01/05 06:07:45;;;;;;;0.40;0.40;;;;;;;2.67;100.00;96828.06;5018891;28;20161;-67
2024/01/05 06:10:12;;;;;;;0.40;0.40;;;;;;;3.02;100.00;96856.91;5003812;28;20153;-66
2024/01/05 06:12:39;;;;;;;0.40;0.40;;;;;;;0.29;100.00;96404.22;5003681;28;20058;-65
2024/01/05 06:15:07;;;;;;;0.30;0.30;;;;;;;3.24;100.00;96859.41;5004094;28;20121;-65
2024/01/05 06:17:34;;;;;;;0.30;0.30;;;;;;;2.84;99.97;96767.84;5002898;28;20041;-66
2024/01/05 06:20:00;;;;;;;0.40;0.40;;;;;;;3.46;99.85;96855.63;5004488;28;20060;-65
2024/01/05 06:22:27;;;;;;;0.40;0.40;;;;;;;3.39;100.00;96812.34;5004539;28;20057;-66
2024/01/05 06:24:54;;;;;;;0.40;0.40;;;;;;;3.17;99.45;96768.03;5004296;28;20151;-65
2024/01/05 06:27:21;;;;;;;0.45;0.45;;;;;;;3.37;99.20;96787.22;5004530;28;20409;-70
2024/01/05 06:30:01;;;;;;;0.40;0.40;;;;;;;4.01;97.68;96868.06;5004653;28;20088;-67
2024/01/05 06:32:28;;;;;;;0.47;0.47;;;;;;;4.16;95.82;96869.38;5004022;28;20197;-65
2024/01/05 06:34:54;;;;;;;0.47;0.47;;;;;;;4.31;96.44;96872.34;4790212;28;5001379;-65
2024/01/05 06:37:21;;;;;;;0.40;0.40;;;;;;;4.21;94.07;96886.44;5004146;28;20045;-66
2024/01/05 06:39:48;;;;;;;0.40;0.40;;;;;;;3.76;96.22;96882.69;5019334;28;20437;-66
2024/01/05 06:42:15;;;;;;;0.40;0.40;;;;;;;3.39;98.63;96875.31;5019043;28;20054;-67
2024/01/05 06:44:41;;;;;;;0.40;0.40;;;;;;;3.65;96.88;96886.94;5004503;28;20077;-66
2024/01/05 06:47:08;;;;;;;0.40;0.40;;;;;;;3.88;97.25;96884.72;5014064;28;20054;-67
2024/01/05 06:49:35;;;;;;;0.40;0.40;;;;;;;4.19;96.88;96891.44;4984019;28;20050;-67
2024/01/05 06:52:03;;;;;;;0.40;0.40;;;;;;;4.31;95.57;96894.28;4983274;28;20112;-66
2024/01/05 06:54:30;;;;;;;0.50;0.50;;;;;;;4.46;94.41;96901.91;4984742;28;20050;-65
2024/01/05 06:56:57;;;;;;;0.50;0.50;;;;;;;4.73;92.79;96899.75;4984557;28;20057;-66
2024/01/05 06:59:26;;;;;;;0.50;0.50;;;;;;;5.05;92.71;96905.25;4982928;28;20474;-67
2024/01/05 07:01:52;;;;;;;0.50;0.50;;;;;;;5.10;89.12;96894.06;4984367;28;20057;-67
2024/01/05 07:04:19;;;;;;;0.50;0.50;;;;;;;5.58;86.93;96909.84;4985009;28;20513;-67
2024/01/05 07:06:46;;;;;;;0.50;0.50;;;;;;;5.81;86.60;96919.25;4991739;28;20042;-65
2024/01/05 07:09:13;;;;;;;0.50;0.50;;;;;;;5.76;86.08;96905.72;4998699;28;20053;-68
2024/01/05 07:11:41;;;;;;;0.50;0.50;;;;;;;6.32;85.95;96915.84;4997767;28;20077;-70
2024/01/05 07:14:08;;;;;;;0.50;0.50;;;;;;;5.03;84.50;96698.13;4994067;28;20046;-72
2024/01/05 07:16:35;;;;;;;0.60;0.60;;;;;;;6.44;82.76;96902.06;5019470;28;20503;-62
2024/01/05 07:19:02;;;;;;;0.60;0.60;;;;;;;6.63;81.12;96882.16;5019747;28;20064;-68
2024/01/05 07:21:28;;;;;;;0.50;0.50;;;;;;;7.14;80.05;96947.38;5003159;28;20092;-72
2024/01/05 07:23:55;;;;;;;0.60;0.60;;;;;;;7.22;79.05;96933.44;5003454;28;20049;-64
2024/01/05 07:26:22;;;;;;;0.52;0.52;;;;;;;6.76;75.47;96785.47;5003652;28;20052;-62
2024/01/05 07:28:49;;;;;;;0.70;0.70;;;;;;;7.35;75.47;96896.41;5018471;28;20046;-69
2024/01/05 07:31:25;;;;;;;0.63;0.63;;;;;;;7.93;75.46;96932.56;5003149;28;20061;-72
2024/01/05 07:33:52;;;;;;;0.70;0.70;;;;;;;8.20;72.26;96932.50;5003452;28;20163;-62
2024/01/05 07:36:19;;;;;;;0.70;0.70;;;;;;;8.49;66.86;96934.78;5003989;28;20173;-67
2024/01/05 07:38:46;;;;;;;0.70;0.70;;;;;;;8.48;68.69;96882.69;5003714;28;20061;-69
2024/01/05 07:41:16;;;;;;;0.80;0.80;;;;;;;9.00;69.39;96935.50;5003798;28;20062;-64
2024/01/05 07:43:44;;;;;;;0.75;0.75;;;;;;;9.36;67.84;96932.28;5003585;28;20085;-68
2024/01/05 07:46:10;;;;;;;0.73;0.73;;;;;;;9.47;66.59;96891.84;5018348;28;20056;-71
2024/01/05 07:48:40;;;;;;;0.70;0.70;;;;;;;9.60;64.73;96879.44;4995178;28;20452;-74
2024/01/05 07:51:08;;;;;;;0.80;0.80;;;;;;;9.44;64.70;96847.56;5004043;28;20054;-67
2024/01/05 07:53:35;;;;;;;0.77;0.77;;;;;;;9.99;64.50;96908.56;5003368;28;20418;-67
2024/01/05 07:56:03;;;;;;;0.85;0.85;;;;;;;10.40;64.02;96940.91;5003472;28;20049;-69
2024/01/05 07:58:29;;;;;;;0.80;0.80;;;;;;;9.96;62.60;96831.03;5002814;28;20142;-65
2024/01/05 08:00:57;;;;;;;0.80;0.80;;;;;;;10.46;61.90;96883.25;5003652;28;20076;-70
2024/01/05 08:03:24;;;;;;;0.93;0.93;;;;;;;10.87;62.23;96965.38;5001782;28;20082;-77
2024/01/05 08:05:51;;;;;;;1.00;1.00;;;;;;;11.24;60.08;96946.09;5004869;28;20509;-66
2024/01/05 08:08:18;;;;;;;0.90;0.90;;;;;;;11.48;60.55;96956.66;5007056;28;20044;-76
2024/01/05 08:10:45;;;;;;;0.90;0.90;;;;;;;11.08;58.15;96865.09;5007065;28;20049;-71
2024/01/05 08:13:12;;;;;;;0.85;0.85;;;;;;;11.92;57.68;96965.91;5006609;28;20052;-72
2024/01/05 08:15:39;;;;;;;0.93;0.93;;;;;;;12.18;55.72;96971.34;5007240;28;20423;-69
2024/01/05 08:18:06;;;;;;;1.00;1.00;;;;;;;12.23;54.25;96936.88;5006976;28;20049;-64
2024/01/05 08:20:33;;;;;;;1.10;1.10;;;;;;;12.75;54.18;96969.84;5007080;28;20138;-62
2024/01/05 08:23:01;;;;;;;1.05;1.05;;;;;;;12.34;52.52;96893.31;5007223;28;20058;-63
2024/01/05 08:25:28;;;;;;;1.05;1.05;;;;;;;13.08;52.28;96973.28;5007383;28;20056;-66
2024/01/05 08:27:55;;;;;;;1.00;1.00;;;;;;;12.68;52.09;96903.88;5007276;28;20046;-66
2024/01/05 08:30:22;;;;;;;1.00;1.00;;;;;;;13.04;52.52;96953.00;5006949;28;20045;-69
2024/01/05 08:32:54;;;;;;;1.10;1.10;;;;;;;13.30;51.86;96975.00;5021819;28;20053;-67
2024/01/05 08:35:22;;;;;;;1.10;1.10;;;;;;;13.19;51.92;96946.34;5001151;28;20150;-68
2024/01/05 08:37:48;;;;;;;1.20;1.20;;;;;;;12.83;52.22;96861.13;4986765;28;20517;-66
2024/01/05 08:40:17;;;;;;;1.02;1.02;;;;;;;13.38;52.28;96959.94;5006207;28;20057;-71
2024/01/05 08:42:45;;;;;;;1.30;1.30;;;;;;;13.48;52.16;96964.75;5006365;28;20138;-70
2024/01/05 08:45:16;;;;;;;1.20;1.20;;;;;;;13.10;52.67;96859.66;5006202;28;20050;-62
2024/01/05 08:47:43;;;;;;;1.20;1.20;;;;;;;12.76;51.80;96822.16;4999433;28;20140;-67
2024/01/05 08:50:10;;;;;;;1.15;1.15;;;;;;;13.68;52.62;96945.75;5005450;28;20505;-67
2024/01/05 08:52:37;;;;;;;1.10;1.10;;;;;;;12.83;51.50;96772.16;5006311;28;20943;-73
2024/01/05 08:55:05;;;;;;;1.20;1.20;;;;;;;14.06;50.52;96956.19;5006528;28;20041;-77
2024/01/05 08:57:32;;;;;;;1.10;1.10;;;;;;;13.66;50.53;96876.53;5006018;28;20058;-63
2024/01/05 08:59:58;;;;;;;1.25;1.25;;;;;;;13.88;50.60;96893.31;5005870;28;20124;-68
2024/01/05 09:02:26;;;;;;;1.10;1.10;;;;;;;14.05;49.46;96898.09;5006212;28;20064;-66
2024/01/05 09:04:52;;;;;;;1.35;1.35;;;;;;;10.65;48.65;96382.59;5005766;28;20309;-69
2024/01/05 09:07:19;;;;;;;1.25;1.25;;;;;;;14.17;48.42;96908.84;5006059;28;20054;-72
2024/01/05 09:09:46;;;;;;;1.23;1.23;;;;;;;13.69;47.70;96820.09;5005814;28;20053;-74
2024/01/05 09:12:13;;;;;;;1.33;1.33;;;;;;;14.60;47.99;96946.72;5005788;28;20499;-65
2024/01/05 09:14:41;;;;;;;1.30;1.30;;;;;;;14.65;47.76;96963.03;5005675;28;20049;-71
2024/01/05 09:17:07;;;;;;;1.23;1.23;;;;;;;14.26;48.23;96898.13;5005255;28;20089;-69
2024/01/05 09:19:35;;;;;;;1.20;1.20;;;;;;;14.84;47.63;96943.88;5004108;28;20069;-61
2024/01/05 09:22:02;;;;;;;1.13;1.13;;;;;;;14.80;47.66;96984.13;5003888;28;20050;-71
2024/01/05 09:24:29;;;;;;;1.40;1.40;;;;;;;13.99;47.41;96810.56;5005308;28;20053;-73
2024/01/05 09:26:56;;;;;;;1.38;1.38;;;;;;;13.94;47.88;96769.19;5004168;28;20081;-65
2024/01/05 09:29:23;;;;;;;1.30;1.30;;;;;;;14.96;46.88;96909.22;5005694;28;20053;-67
2024/01/05 09:31:51;;;;;;;1.30;1.30;;;;;;;12.86;46.76;96596.25;5005384;28;20077;-72
2024/01/05 09:34:18;;;;;;;1.33;1.33;;;;;;;15.19;46.50;96929.06;5005618;28;20054;-76
2024/01/05 09:36:45;;;;;;;1.30;1.30;;;;;;;15.29;45.80;96922.66;5004279;28;20053;-66
2024/01/05 09:39:12;;;;;;;1.30;1.30;;;;;;;15.34;45.56;96925.03;5020054;28;20543;-64
2024/01/05 09:41:45;;;;;;;1.38;1.38;;;;;;;13.36;46.26;96595.06;5005350;28;20082;-69
2024/01/05 09:44:12;;;;;;;1.40;1.40;;;;;;;15.25;45.85;96895.97;4994668;28;20529;-69
2024/01/05 09:46:40;;;;;;;1.25;1.25;;;;;;;15.60;46.00;96927.34;4986055;28;20054;-69
2024/01/05 09:49:08;;;;;;;1.40;1.40;;;;;;;15.72;46.03;96929.72;5002751;28;20076;-68
2024/01/05 09:51:36;;;;;;;1.50;1.50;;;;;;;14.66;45.62;96744.38;5005386;28;20065;-71
2024/01/05 09:54:03;;;;;;;1.30;1.30;;;;;;;15.82;45.40;96930.84;5005235;28;20058;-64
2024/01/05 09:56:31;;;;;;;1.48;1.48;;;;;;;15.91;45.56;96929.22;5005466;28;20119;-63
2024/01/05 09:58:59;;;;;;;1.30;1.30;;;;;;;15.40;45.17;96901.13;5004714;28;20077;-68
2024/01/05 10:01:32;;;;;;;1.50;1.50;;;;;;;15.87;45.50;96925.63;5005476;28;20046;-67
2024/01/05 10:04:01;;;;;;;1.30;1.30;;;;;;;15.77;45.05;96914.53;5004887;28;20512;-67
2024/01/05 10:06:30;;;;;;;1.30;1.30;;;;;;;15.52;44.99;96881.16;5006099;28;20125;-67
2024/01/05 10:09:00;;;;;;;1.40;1.40;;;;;;;14.80;44.78;96783.34;5005487;28;20054;-67
2024/01/05 10:11:31;;;;;;;1.40;1.40;;;;;;;14.83;45.22;96777.78;5005214;28;20050;-67
2024/01/05 10:14:05;;;;;;;1.50;1.50;;;;;;;15.59;45.63;96891.47;5005308;28;20054;-66
2024/01/05 10:16:39;;;;;;;1.40;1.40;;;;;;;15.36;45.50;96883.59;5005039;28;20073;-70
2024/01/05 10:19:14;;;;;;;1.40;1.40;;;;;;;15.52;46.71;96886.75;5004899;28;20045;-71
2024/01/05 10:21:44;;;;;;;1.20;1.20;;;;;;;14.97;46.62;96790.84;5005353;28;20050;-66
2024/01/05 10:24:22;;;;;;;1.50;1.50;;;;;;;15.40;45.26;96850.88;5003922;28;20512;-71
2024/01/05 10:27:10;;;;;;;1.33;1.33;;;;;;;15.57;44.90;96891.88;5003005;28;20488;-73
2024/01/05 10:29:42;;;;;;;1.40;1.40;;;;;;;15.44;44.38;96868.44;5002698;28;20050;-71
2024/01/05 10:32:19;;;;;;;1.60;1.60;;;;;;;15.65;44.24;96878.69;5004063;28;20489;-72
2024/01/05 10:34:49;;;;;;;1.60;1.60;;;;;;;15.12;44.12;96781.22;4995995;28;20546;-68
2024/01/05 10:37:18;;;;;;;1.52;1.52;;;;;;;14.96;44.21;96750.22;5019317;28;20516;-68
2024/01/05 10:39:51;;;;;;;1.40;1.40;;;;;;;14.98;44.70;96733.88;5004752;28;20481;-69
2024/01/05 10:42:26;;;;;;;1.38;1.38;;;;;;;14.94;43.27;96727.50;5003454;28;20053;-67
2024/01/05 10:44:56;;;;;;;1.50;1.50;;;;;;;15.54;43.29;96842.44;5019473;28;20137;-71
2024/01/05 10:47:31;;;;;;;1.40;1.40;;;;;;;15.52;45.07;96842.06;5003842;28;20053;-67
2024/01/05 10:49:58;;;;;;;1.30;1.30;;;;;;;15.40;45.95;96834.13;5001598;28;20080;-72
2024/01/05 10:52:33;;;;;;;1.40;1.40;;;;;;;15.30;47.08;96834.94;5004329;28;20049;-68
2024/01/05 10:55:03;;;;;;;1.30;1.30;;;;;;;15.33;47.28;96836.94;5019404;28;20052;-67
2024/01/05 10:57:35;;;;;;;1.50;1.50;;;;;;;15.36;47.17;96832.53;5002860;28;20049;-67
2024/01/05 11:00:05;;;;;;;1.27;1.27;;;;;;;14.43;45.86;96691.13;4989395;28;20061;-72
2024/01/05 11:02:44;;;;;;;1.40;1.40;;;;;;;15.45;46.82;96830.91;4984379;28;20054;-71
2024/01/05 11:05:13;;;;;;;1.30;1.30;;;;;;;15.33;45.76;96799.88;5002292;28;20519;-72
2024/01/05 11:07:42;;;;;;;1.30;1.30;;;;;;;15.65;45.31;96842.38;5002689;28;20483;-66
2024/01/05 11:10:33;;;;;;;1.40;1.40;;;;;;;15.67;43.81;96837.16;5004304;28;20053;-72
2024/01/05 11:13:09;;;;;;;1.33;1.33;;;;;;;15.62;43.79;96830.03;5002708;28;20107;-72
2024/01/05 11:15:39;;;;;;;1.50;1.50;;;;;;;15.64;43.69;96832.41;5003871;28;20053;-72
2024/01/05 11:18:12;;;;;;;1.38;1.38;;;;;;;15.67;43.19;96835.19;5018539;28;20050;-70
2024/01/05 11:21:02;;;;;;;1.38;1.38;;;;;;;15.34;43.40;96752.00;5004091;28;20057;-66
2024/01/05 11:23:33;;;;;;;1.40;1.40;;;;;;;13.87;43.74;96519.41;5004383;28;20253;-68
2024/01/05 11:26:00;;;;;;;1.35;1.35;;;;;;;15.32;43.31;96742.47;5004068;28;20050;-68
2024/01/05 11:28:38;;;;;;;1.38;1.38;;;;;;;15.68;42.36;96772.53;5002893;28;20060;-67
2024/01/05 11:31:05;;;;;;;1.50;1.50;;;;;;;16.05;41.97;96814.56;5004305;28;20159;-69
2024/01/05 11:33:48;;;;;;;1.42;1.42;;;;;;;16.18;41.31;96829.63;5003273;28;20119;-67
2024/01/05 11:36:49;;;;;;;1.30;1.30;;;;;;;16.13;40.87;96821.69;5003610;28;20433;-73
2024/01/05 11:39:44;;;;;;;1.40;1.40;;;;;;;16.15;41.14;96816.47;5012239;28;20056;-70
2024/01/05 11:42:33;;;;;;;1.35;1.35;;;;;;;16.21;40.73;96806.44;4988021;28;20522;-70
2024/01/05 11:45:09;;;;;;;1.40;1.40;;;;;;;16.07;40.59;96789.81;5003498;28;20054;-65